sensor_id;sensor_type;location;lat;lon;timestamp;temperature;humidity
75615;DHT22;64199;48.578;-4.520;2022-11-15T00:00:52;20.90;70.50
75615;DHT22;64199;48.578;-4.520;2022-11-15T00:03:20;20.90;70.50
75615;DHT22;64199;48.578;-4.520;2022-11-15T00:05:46;20.90;70.60
75615;DHT22;64199;48.578;-4.520;2022-11-15T00:08:12;20.90;71.30
75615;DHT22;64199;48.578;-4.520;2022-11-15T00:10:38;20.90;70.50
75615;DHT22;64199;48.578;-4.520;2022-11-15T00:13:11;20.90;70.50
75615;DHT22;64199;48.578;-4.520;2022-11-15T00:15:39;20.90;70.60
75615;DHT22;64199;48.578;-4.520;2022-11-15T00:18:06;20.90;70.60
75615;DHT22;64199;48.578;-4.520;2022-11-15T00:20:35;20.90;70.60
75615;DHT22;64199;48.578;-4.520;2022-11-15T00:23:03;20.90;70.60
75615;DHT22;64199;48.578;-4.520;2022-11-15T00:25:30;20.90;70.60
75615;DHT22;64199;48.578;-4.520;2022-11-15T00:27:57;20.90;70.60
75615;DHT22;64199;48.578;-4.520;2022-11-15T00:30:23;20.90;70.70
75615;DHT22;64199;48.578;-4.520;2022-11-15T00:32:49;20.90;70.70
75615;DHT22;64199;48.578;-4.520;2022-11-15T00:35:15;20.90;70.70
75615;DHT22;64199;48.578;-4.520;2022-11-15T00:37:41;20.90;70.70
75615;DHT22;64199;48.578;-4.520;2022-11-15T00:40:08;20.90;70.70
75615;DHT22;64199;48.578;-4.520;2022-11-15T00:42:34;20.90;70.70
75615;DHT22;64199;48.578;-4.520;2022-11-15T00:45:00;20.90;70.60
75615;DHT22;64199;48.578;-4.520;2022-11-15T00:47:26;20.90;70.60
75615;DHT22;64199;48.578;-4.520;2022-11-15T00:49:51;20.90;70.60
75615;DHT22;64199;48.578;-4.520;2022-11-15T00:52:17;20.90;70.60
75615;DHT22;64199;48.578;-4.520;2022-11-15T00:54:43;20.90;70.60
75615;DHT22;64199;48.578;-4.520;2022-11-15T00:57:09;20.90;70.60
75615;DHT22;64199;48.578;-4.520;2022-11-15T00:59:35;20.90;70.60
75615;DHT22;64199;48.578;-4.520;2022-11-15T01:02:01;20.90;70.60
75615;DHT22;64199;48.578;-4.520;2022-11-15T01:04:27;20.90;70.60
75615;DHT22;64199;48.578;-4.520;2022-11-15T01:06:53;20.90;70.60
75615;DHT22;64199;48.578;-4.520;2022-11-15T01:09:19;20.90;70.60
75615;DHT22;64199;48.578;-4.520;2022-11-15T01:11:45;20.90;70.50
75615;DHT22;64199;48.578;-4.520;2022-11-15T01:14:11;20.90;70.50
75615;DHT22;64199;48.578;-4.520;2022-11-15T01:16:37;20.90;70.50
75615;DHT22;64199;48.578;-4.520;2022-11-15T01:19:03;20.90;70.60
75615;DHT22;64199;48.578;-4.520;2022-11-15T01:21:29;20.80;70.70
75615;DHT22;64199;48.578;-4.520;2022-11-15T01:23:56;20.80;70.70
75615;DHT22;64199;48.578;-4.520;2022-11-15T01:26:23;20.90;70.70
75615;DHT22;64199;48.578;-4.520;2022-11-15T01:28:50;20.80;70.70
75615;DHT22;64199;48.578;-4.520;2022-11-15T01:31:19;20.90;70.70
75615;DHT22;64199;48.578;-4.520;2022-11-15T01:33:45;20.90;70.70
75615;DHT22;64199;48.578;-4.520;2022-11-15T01:36:15;20.80;70.60
75615;DHT22;64199;48.578;-4.520;2022-11-15T01:38:41;20.80;70.60
75615;DHT22;64199;48.578;-4.520;2022-11-15T01:41:15;20.90;70.60
75615;DHT22;64199;48.578;-4.520;2022-11-15T01:43:41;20.80;70.60
75615;DHT22;64199;48.578;-4.520;2022-11-15T01:46:30;20.90;70.60
75615;DHT22;64199;48.578;-4.520;2022-11-15T01:49:02;20.80;70.60
75615;DHT22;64199;48.578;-4.520;2022-11-15T01:51:30;20.80;70.60
75615;DHT22;64199;48.578;-4.520;2022-11-15T01:54:02;20.80;70.60
75615;DHT22;64199;48.578;-4.520;2022-11-15T01:56:33;20.80;70.70
75615;DHT22;64199;48.578;-4.520;2022-11-15T01:59:04;20.80;70.70
75615;DHT22;64199;48.578;-4.520;2022-11-15T02:01:33;20.80;70.70
75615;DHT22;64199;48.578;-4.520;2022-11-15T02:07:09;20.80;70.70
75615;DHT22;64199;48.578;-4.520;2022-11-15T02:09:37;20.80;70.70
75615;DHT22;64199;48.578;-4.520;2022-11-15T02:12:04;20.80;70.70
75615;DHT22;64199;48.578;-4.520;2022-11-15T02:14:31;20.80;70.70
75615;DHT22;64199;48.578;-4.520;2022-11-15T02:28:41;20.80;70.80
75615;DHT22;64199;48.578;-4.520;2022-11-15T02:31:30;20.80;70.90
75615;DHT22;64199;48.578;-4.520;2022-11-15T02:34:07;20.80;70.90
75615;DHT22;64199;48.578;-4.520;2022-11-15T02:39:32;20.80;71.00
75615;DHT22;64199;48.578;-4.520;2022-11-15T02:42:11;20.90;71.10
75615;DHT22;64199;48.578;-4.520;2022-11-15T02:45:03;20.90;71.20
75615;DHT22;64199;48.578;-4.520;2022-11-15T02:47:32;20.90;71.40
75615;DHT22;64199;48.578;-4.520;2022-11-15T02:50:03;21.00;71.50
75615;DHT22;64199;48.578;-4.520;2022-11-15T02:52:31;21.00;71.60
75615;DHT22;64199;48.578;-4.520;2022-11-15T02:54:59;21.10;71.70
75615;DHT22;64199;48.578;-4.520;2022-11-15T02:57:45;21.20;71.80
75615;DHT22;64199;48.578;-4.520;2022-11-15T03:00:18;21.20;71.80
75615;DHT22;64199;48.578;-4.520;2022-11-15T03:03:27;21.30;72.60
75615;DHT22;64199;48.578;-4.520;2022-11-15T03:08:54;21.40;71.90
75615;DHT22;64199;48.578;-4.520;2022-11-15T03:11:22;21.40;71.80
75615;DHT22;64199;48.578;-4.520;2022-11-15T03:16:51;21.50;71.80
75615;DHT22;64199;48.578;-4.520;2022-11-15T03:21:52;21.60;71.80
75615;DHT22;64199;48.578;-4.520;2022-11-15T03:24:21;21.60;71.70
75615;DHT22;64199;48.578;-4.520;2022-11-15T03:26:50;21.70;71.70
75615;DHT22;64199;48.578;-4.520;2022-11-15T03:29:22;21.80;71.80
75615;DHT22;64199;48.578;-4.520;2022-11-15T03:31:51;21.80;71.70
75615;DHT22;64199;48.578;-4.520;2022-11-15T03:34:27;21.80;71.60
75615;DHT22;64199;48.578;-4.520;2022-11-15T03:36:54;21.90;72.10
75615;DHT22;64199;48.578;-4.520;2022-11-15T03:39:20;21.90;71.50
75615;DHT22;64199;48.578;-4.520;2022-11-15T03:44:52;22.00;71.40
75615;DHT22;64199;48.578;-4.520;2022-11-15T03:47:38;22.10;71.50
75615;DHT22;64199;48.578;-4.520;2022-11-15T03:52:35;22.10;71.30
75615;DHT22;64199;48.578;-4.520;2022-11-15T03:55:04;22.20;71.30
75615;DHT22;64199;48.578;-4.520;2022-11-15T03:57:31;22.20;71.10
75615;DHT22;64199;48.578;-4.520;2022-11-15T03:59:57;22.20;71.00
75615;DHT22;64199;48.578;-4.520;2022-11-15T04:02:23;22.20;70.90
75615;DHT22;64199;48.578;-4.520;2022-11-15T04:04:49;22.20;70.80
75615;DHT22;64199;48.578;-4.520;2022-11-15T04:07:14;22.20;70.80
75615;DHT22;64199;48.578;-4.520;2022-11-15T04:09:40;22.20;70.70
75615;DHT22;64199;48.578;-4.520;2022-11-15T04:12:26;22.20;70.60
75615;DHT22;64199;48.578;-4.520;2022-11-15T04:15:07;22.20;70.60
75615;DHT22;64199;48.578;-4.520;2022-11-15T04:17:48;22.10;70.40
75615;DHT22;64199;48.578;-4.520;2022-11-15T04:20:20;22.10;70.40
75615;DHT22;64199;48.578;-4.520;2022-11-15T04:23:16;22.10;70.30
75615;DHT22;64199;48.578;-4.520;2022-11-15T04:26:09;22.10;70.20
75615;DHT22;64199;48.578;-4.520;2022-11-15T04:28:36;22.10;70.10
75615;DHT22;64199;48.578;-4.520;2022-11-15T04:31:25;22.10;70.10
75615;DHT22;64199;48.578;-4.520;2022-11-15T04:33:51;22.10;70.00
75615;DHT22;64199;48.578;-4.520;2022-11-15T04:36:17;22.00;70.00
75615;DHT22;64199;48.578;-4.520;2022-11-15T04:39:01;22.00;70.00
75615;DHT22;64199;48.578;-4.520;2022-11-15T04:41:27;22.00;69.90
75615;DHT22;64199;48.578;-4.520;2022-11-15T04:43:54;22.00;69.90
75615;DHT22;64199;48.578;-4.520;2022-11-15T04:46:21;22.00;69.80
75615;DHT22;64199;48.578;-4.520;2022-11-15T04:48:47;22.00;69.80
75615;DHT22;64199;48.578;-4.520;2022-11-15T04:51:12;21.90;69.60
75615;DHT22;64199;48.578;-4.520;2022-11-15T04:53:38;21.90;69.60
75615;DHT22;64199;48.578;-4.520;2022-11-15T04:56:04;22.00;69.60
75615;DHT22;64199;48.578;-4.520;2022-11-15T04:58:30;21.90;69.50
75615;DHT22;64199;48.578;-4.520;2022-11-15T05:00:56;21.90;69.50
75615;DHT22;64199;48.578;-4.520;2022-11-15T05:03:22;21.90;69.40
75615;DHT22;64199;48.578;-4.520;2022-11-15T05:06:06;21.90;69.40
75615;DHT22;64199;48.578;-4.520;2022-11-15T05:08:32;21.90;69.30
75615;DHT22;64199;48.578;-4.520;2022-11-15T05:10:58;21.90;69.30
75615;DHT22;64199;48.578;-4.520;2022-11-15T05:13:24;21.90;69.20
75615;DHT22;64199;48.578;-4.520;2022-11-15T05:15:49;21.80;69.20
75615;DHT22;64199;48.578;-4.520;2022-11-15T05:18:15;21.80;69.20
75615;DHT22;64199;48.578;-4.520;2022-11-15T05:20:41;21.80;69.20
75615;DHT22;64199;48.578;-4.520;2022-11-15T05:23:07;21.80;69.20
75615;DHT22;64199;48.578;-4.520;2022-11-15T05:25:33;21.80;69.10
75615;DHT22;64199;48.578;-4.520;2022-11-15T05:27:59;21.80;69.10
75615;DHT22;64199;48.578;-4.520;2022-11-15T05:30:25;21.70;69.00
75615;DHT22;64199;48.578;-4.520;2022-11-15T05:32:51;21.80;69.00
75615;DHT22;64199;48.578;-4.520;2022-11-15T05:35:38;21.70;68.90
75615;DHT22;64199;48.578;-4.520;2022-11-15T05:38:05;21.70;69.00
75615;DHT22;64199;48.578;-4.520;2022-11-15T05:40:31;21.70;69.10
75615;DHT22;64199;48.578;-4.520;2022-11-15T05:43:00;21.70;69.10
75615;DHT22;64199;48.578;-4.520;2022-11-15T05:45:28;21.70;69.10
75615;DHT22;64199;48.578;-4.520;2022-11-15T05:47:55;21.70;69.20
75615;DHT22;64199;48.578;-4.520;2022-11-15T05:50:22;21.70;69.10
75615;DHT22;64199;48.578;-4.520;2022-11-15T05:52:48;21.60;69.00
75615;DHT22;64199;48.578;-4.520;2022-11-15T05:55:15;21.60;69.10
75615;DHT22;64199;48.578;-4.520;2022-11-15T05:57:41;21.60;69.10
75615;DHT22;64199;48.578;-4.520;2022-11-15T06:00:07;21.60;69.00
75615;DHT22;64199;48.578;-4.520;2022-11-15T06:02:34;21.60;69.10
75615;DHT22;64199;48.578;-4.520;2022-11-15T06:05:00;21.60;69.10
75615;DHT22;64199;48.578;-4.520;2022-11-15T06:07:26;21.60;69.10
75615;DHT22;64199;48.578;-4.520;2022-11-15T06:09:54;21.50;69.10
75615;DHT22;64199;48.578;-4.520;2022-11-15T06:12:19;21.50;69.10
75615;DHT22;64199;48.578;-4.520;2022-11-15T06:14:45;21.50;69.10
75615;DHT22;64199;48.578;-4.520;2022-11-15T06:17:11;21.50;69.10
75615;DHT22;64199;48.578;-4.520;2022-11-15T06:19:37;21.50;69.20
75615;DHT22;64199;48.578;-4.520;2022-11-15T06:22:03;21.50;69.10
75615;DHT22;64199;48.578;-4.520;2022-11-15T06:24:29;21.50;69.10
75615;DHT22;64199;48.578;-4.520;2022-11-15T06:26:55;21.50;69.20
75615;DHT22;64199;48.578;-4.520;2022-11-15T06:29:20;21.50;69.20
75615;DHT22;64199;48.578;-4.520;2022-11-15T06:31:46;21.40;69.10
75615;DHT22;64199;48.578;-4.520;2022-11-15T06:34:12;21.50;69.20
75615;DHT22;64199;48.578;-4.520;2022-11-15T06:36:38;21.40;69.10
75615;DHT22;64199;48.578;-4.520;2022-11-15T06:39:05;21.40;69.10
75615;DHT22;64199;48.578;-4.520;2022-11-15T06:41:34;21.40;69.20
75615;DHT22;64199;48.578;-4.520;2022-11-15T06:44:00;21.40;69.20
75615;DHT22;64199;48.578;-4.520;2022-11-15T06:46:26;21.40;69.20
75615;DHT22;64199;48.578;-4.520;2022-11-15T06:48:52;21.40;69.10
75615;DHT22;64199;48.578;-4.520;2022-11-15T06:51:18;21.40;69.10
75615;DHT22;64199;48.578;-4.520;2022-11-15T06:53:44;21.40;69.10
75615;DHT22;64199;48.578;-4.520;2022-11-15T06:56:11;21.40;69.10
75615;DHT22;64199;48.578;-4.520;2022-11-15T06:58:37;21.40;69.20
75615;DHT22;64199;48.578;-4.520;2022-11-15T07:01:05;21.30;69.10
75615;DHT22;64199;48.578;-4.520;2022-11-15T07:03:34;21.30;69.10
75615;DHT22;64199;48.578;-4.520;2022-11-15T07:05:59;21.30;69.10
75615;DHT22;64199;48.578;-4.520;2022-11-15T07:08:27;21.30;69.20
75615;DHT22;64199;48.578;-4.520;2022-11-15T07:10:54;21.30;69.10
75615;DHT22;64199;48.578;-4.520;2022-11-15T07:13:20;21.30;69.30
75615;DHT22;64199;48.578;-4.520;2022-11-15T07:15:49;21.30;69.20
75615;DHT22;64199;48.578;-4.520;2022-11-15T07:18:15;21.30;69.40
75615;DHT22;64199;48.578;-4.520;2022-11-15T07:20:40;21.30;69.40
75615;DHT22;64199;48.578;-4.520;2022-11-15T07:23:06;21.20;69.40
75615;DHT22;64199;48.578;-4.520;2022-11-15T07:25:32;21.20;69.30
75615;DHT22;64199;48.578;-4.520;2022-11-15T07:27:59;21.20;69.30
75615;DHT22;64199;48.578;-4.520;2022-11-15T07:30:25;21.20;69.40
75615;DHT22;64199;48.578;-4.520;2022-11-15T07:32:56;21.20;69.30
75615;DHT22;64199;48.578;-4.520;2022-11-15T07:35:22;21.20;69.40
75615;DHT22;64199;48.578;-4.520;2022-11-15T07:37:59;21.20;69.40
75615;DHT22;64199;48.578;-4.520;2022-11-15T07:40:27;21.20;69.40
75615;DHT22;64199;48.578;-4.520;2022-11-15T07:42:59;21.20;69.50
75615;DHT22;64199;48.578;-4.520;2022-11-15T07:45:25;21.20;69.50
75615;DHT22;64199;48.578;-4.520;2022-11-15T07:47:54;21.20;69.60
75615;DHT22;64199;48.578;-4.520;2022-11-15T07:50:23;21.10;69.60
75615;DHT22;64199;48.578;-4.520;2022-11-15T07:52:54;21.10;69.50
75615;DHT22;64199;48.578;-4.520;2022-11-15T07:55:21;21.10;69.70
75615;DHT22;64199;48.578;-4.520;2022-11-15T07:57:47;21.10;69.60
75615;DHT22;64199;48.578;-4.520;2022-11-15T08:00:14;21.10;69.60
75615;DHT22;64199;48.578;-4.520;2022-11-15T08:02:40;21.10;69.70
75615;DHT22;64199;48.578;-4.520;2022-11-15T08:05:06;21.10;69.80
75615;DHT22;64199;48.578;-4.520;2022-11-15T08:07:32;21.10;69.80
75615;DHT22;64199;48.578;-4.520;2022-11-15T08:09:58;21.10;69.80
75615;DHT22;64199;48.578;-4.520;2022-11-15T08:12:27;21.10;69.80
75615;DHT22;64199;48.578;-4.520;2022-11-15T08:14:55;21.10;69.80
75615;DHT22;64199;48.578;-4.520;2022-11-15T08:17:22;21.10;69.80
75615;DHT22;64199;48.578;-4.520;2022-11-15T08:19:48;21.10;69.80
75615;DHT22;64199;48.578;-4.520;2022-11-15T08:22:14;21.00;69.70
75615;DHT22;64199;48.578;-4.520;2022-11-15T08:24:40;21.10;69.80
75615;DHT22;64199;48.578;-4.520;2022-11-15T08:27:06;21.10;69.80
75615;DHT22;64199;48.578;-4.520;2022-11-15T08:29:48;21.10;69.90
75615;DHT22;64199;48.578;-4.520;2022-11-15T08:32:13;21.00;69.70
75615;DHT22;64199;48.578;-4.520;2022-11-15T08:34:39;21.10;69.80
75615;DHT22;64199;48.578;-4.520;2022-11-15T08:37:05;21.00;69.70
75615;DHT22;64199;48.578;-4.520;2022-11-15T08:39:32;21.00;69.70
75615;DHT22;64199;48.578;-4.520;2022-11-15T08:41:57;21.10;69.80
75615;DHT22;64199;48.578;-4.520;2022-11-15T08:44:23;21.10;69.80
75615;DHT22;64199;48.578;-4.520;2022-11-15T08:46:50;21.10;69.70
75615;DHT22;64199;48.578;-4.520;2022-11-15T08:49:16;21.10;69.70
75615;DHT22;64199;48.578;-4.520;2022-11-15T08:51:41;21.00;69.60
75615;DHT22;64199;48.578;-4.520;2022-11-15T08:54:07;21.10;70.50
75615;DHT22;64199;48.578;-4.520;2022-11-15T08:56:33;21.00;69.60
75615;DHT22;64199;48.578;-4.520;2022-11-15T08:58:59;21.00;69.60
75615;DHT22;64199;48.578;-4.520;2022-11-15T09:01:25;21.00;69.50
75615;DHT22;64199;48.578;-4.520;2022-11-15T09:03:51;21.00;69.60
75615;DHT22;64199;48.578;-4.520;2022-11-15T09:06:16;21.00;69.60
75615;DHT22;64199;48.578;-4.520;2022-11-15T09:08:42;21.00;69.70
75615;DHT22;64199;48.578;-4.520;2022-11-15T09:11:09;21.00;69.70
75615;DHT22;64199;48.578;-4.520;2022-11-15T09:13:36;21.00;69.70
75615;DHT22;64199;48.578;-4.520;2022-11-15T09:16:05;21.00;69.70
75615;DHT22;64199;48.578;-4.520;2022-11-15T09:18:31;21.00;69.70
75615;DHT22;64199;48.578;-4.520;2022-11-15T09:20:58;21.00;69.70
75615;DHT22;64199;48.578;-4.520;2022-11-15T09:23:24;21.00;69.70
75615;DHT22;64199;48.578;-4.520;2022-11-15T09:25:51;21.00;69.70
75615;DHT22;64199;48.578;-4.520;2022-11-15T09:28:17;21.00;69.70
75615;DHT22;64199;48.578;-4.520;2022-11-15T09:30:43;21.00;69.70
75615;DHT22;64199;48.578;-4.520;2022-11-15T09:33:10;21.00;69.70
75615;DHT22;64199;48.578;-4.520;2022-11-15T09:35:37;21.00;69.70
75615;DHT22;64199;48.578;-4.520;2022-11-15T09:38:03;21.00;69.80
75615;DHT22;64199;48.578;-4.520;2022-11-15T09:40:31;21.00;70.00
75615;DHT22;64199;48.578;-4.520;2022-11-15T09:46:05;21.10;70.30
75615;DHT22;64199;48.578;-4.520;2022-11-15T09:48:47;21.10;70.40
75615;DHT22;64199;48.578;-4.520;2022-11-15T09:51:34;21.20;70.50
75615;DHT22;64199;48.578;-4.520;2022-11-15T09:56:45;21.30;70.80
75615;DHT22;64199;48.578;-4.520;2022-11-15T10:04:38;21.40;71.00
75615;DHT22;64199;48.578;-4.520;2022-11-15T10:12:12;21.60;71.00
75615;DHT22;64199;48.578;-4.520;2022-11-15T10:14:38;21.60;71.00
75615;DHT22;64199;48.578;-4.520;2022-11-15T10:20:04;21.80;71.10
75615;DHT22;64199;48.578;-4.520;2022-11-15T10:22:49;21.80;71.10
75615;DHT22;64199;48.578;-4.520;2022-11-15T10:25:30;21.90;71.10
75615;DHT22;64199;48.578;-4.520;2022-11-15T10:28:14;21.90;71.10
75615;DHT22;64199;48.578;-4.520;2022-11-15T10:30:43;22.00;71.20
75615;DHT22;64199;48.578;-4.520;2022-11-15T10:33:24;22.00;71.10
75615;DHT22;64199;48.578;-4.520;2022-11-15T10:46:34;22.30;71.00
75615;DHT22;64199;48.578;-4.520;2022-11-15T10:49:16;22.30;70.80
75615;DHT22;64199;48.578;-4.520;2022-11-15T10:54:28;22.40;70.60
75615;DHT22;64199;48.578;-4.520;2022-11-15T10:56:57;22.40;70.40
75615;DHT22;64199;48.578;-4.520;2022-11-15T10:59:27;22.40;70.30
75615;DHT22;64199;48.578;-4.520;2022-11-15T11:01:54;22.40;70.10
75615;DHT22;64199;48.578;-4.520;2022-11-15T11:04:20;22.40;70.00
75615;DHT22;64199;48.578;-4.520;2022-11-15T11:09:37;22.30;69.70
75615;DHT22;64199;48.578;-4.520;2022-11-15T11:12:05;22.30;69.70
75615;DHT22;64199;48.578;-4.520;2022-11-15T11:14:36;22.30;69.60
75615;DHT22;64199;48.578;-4.520;2022-11-15T11:25:04;22.30;69.50
75615;DHT22;64199;48.578;-4.520;2022-11-15T11:27:41;22.30;69.40
75615;DHT22;64199;48.578;-4.520;2022-11-15T11:33:38;22.20;69.30
75615;DHT22;64199;48.578;-4.520;2022-11-15T11:49:04;22.20;69.30
75615;DHT22;64199;48.578;-4.520;2022-11-15T11:51:46;22.20;69.30
75615;DHT22;64199;48.578;-4.520;2022-11-15T11:54:26;22.20;69.20
75615;DHT22;64199;48.578;-4.520;2022-11-15T11:56:58;22.10;69.20
75615;DHT22;64199;48.578;-4.520;2022-11-15T11:59:28;22.10;69.20
75615;DHT22;64199;48.578;-4.520;2022-11-15T12:01:57;22.10;69.20
75615;DHT22;64199;48.578;-4.520;2022-11-15T12:04:30;22.10;69.20
75615;DHT22;64199;48.578;-4.520;2022-11-15T12:07:07;22.10;69.10
75615;DHT22;64199;48.578;-4.520;2022-11-15T12:17:35;22.10;68.80
75615;DHT22;64199;48.578;-4.520;2022-11-15T12:20:20;22.10;68.80
75615;DHT22;64199;48.578;-4.520;2022-11-15T12:22:53;22.10;68.70
75615;DHT22;64199;48.578;-4.520;2022-11-15T12:27:56;22.10;68.80
75615;DHT22;64199;48.578;-4.520;2022-11-15T12:30:23;22.10;68.70
75615;DHT22;64199;48.578;-4.520;2022-11-15T12:32:57;22.10;68.80
75615;DHT22;64199;48.578;-4.520;2022-11-15T12:35:41;22.00;68.80
75615;DHT22;64199;48.578;-4.520;2022-11-15T12:38:11;22.00;68.90
75615;DHT22;64199;48.578;-4.520;2022-11-15T12:43:42;22.00;69.00
75615;DHT22;64199;48.578;-4.520;2022-11-15T12:46:13;22.10;69.10
75615;DHT22;64199;48.578;-4.520;2022-11-15T12:51:05;22.00;69.00
75615;DHT22;64199;48.578;-4.520;2022-11-15T12:53:33;22.10;69.10
75615;DHT22;64199;48.578;-4.520;2022-11-15T12:58:47;22.00;69.00
75615;DHT22;64199;48.578;-4.520;2022-11-15T13:06:42;22.10;69.00
75615;DHT22;64199;48.578;-4.520;2022-11-15T13:15:36;22.10;68.90
75615;DHT22;64199;48.578;-4.520;2022-11-15T13:17:56;22.10;68.90
75615;DHT22;64199;48.578;-4.520;2022-11-15T13:20:27;22.10;69.00
75615;DHT22;64199;48.578;-4.520;2022-11-15T13:23:07;22.10;69.10
75615;DHT22;64199;48.578;-4.520;2022-11-15T13:31:26;22.20;69.00
75615;DHT22;64199;48.578;-4.520;2022-11-15T13:33:55;22.20;68.90
75615;DHT22;64199;48.578;-4.520;2022-11-15T13:36:25;22.20;68.90
75615;DHT22;64199;48.578;-4.520;2022-11-15T13:39:11;22.20;68.90
75615;DHT22;64199;48.578;-4.520;2022-11-15T13:41:49;22.20;68.90
75615;DHT22;64199;48.578;-4.520;2022-11-15T13:44:24;22.20;68.80
75615;DHT22;64199;48.578;-4.520;2022-11-15T13:47:13;22.20;69.60
75615;DHT22;64199;48.578;-4.520;2022-11-15T13:49:40;22.20;68.90
75615;DHT22;64199;48.578;-4.520;2022-11-15T13:52:08;22.20;68.80
75615;DHT22;64199;48.578;-4.520;2022-11-15T13:54:45;22.20;68.90
75615;DHT22;64199;48.578;-4.520;2022-11-15T14:00:06;22.30;69.00
75615;DHT22;64199;48.578;-4.520;2022-11-15T14:02:34;22.30;69.00
75615;DHT22;64199;48.578;-4.520;2022-11-15T14:05:16;22.30;68.90
75615;DHT22;64199;48.578;-4.520;2022-11-15T14:08:02;22.30;68.90
75615;DHT22;64199;48.578;-4.520;2022-11-15T14:10:34;22.30;69.00
75615;DHT22;64199;48.578;-4.520;2022-11-15T14:13:00;22.40;69.00
75615;DHT22;64199;48.578;-4.520;2022-11-15T14:15:36;22.30;69.00
75615;DHT22;64199;48.578;-4.520;2022-11-15T14:18:03;22.40;69.00
75615;DHT22;64199;48.578;-4.520;2022-11-15T14:20:38;22.40;68.90
75615;DHT22;64199;48.578;-4.520;2022-11-15T14:23:19;22.40;68.90
75615;DHT22;64199;48.578;-4.520;2022-11-15T14:25:58;22.40;68.90
75615;DHT22;64199;48.578;-4.520;2022-11-15T14:30:53;22.40;68.80
75615;DHT22;64199;48.578;-4.520;2022-11-15T14:33:30;22.40;68.70
75615;DHT22;64199;48.578;-4.520;2022-11-15T14:36:01;22.40;68.70
75615;DHT22;64199;48.578;-4.520;2022-11-15T14:38:27;22.40;68.70
75615;DHT22;64199;48.578;-4.520;2022-11-15T14:40:55;22.40;68.70
75615;DHT22;64199;48.578;-4.520;2022-11-15T14:43:22;22.40;68.70
75615;DHT22;64199;48.578;-4.520;2022-11-15T14:45:48;22.40;68.60
75615;DHT22;64199;48.578;-4.520;2022-11-15T14:48:14;22.40;68.60
75615;DHT22;64199;48.578;-4.520;2022-11-15T14:50:40;22.40;68.60
75615;DHT22;64199;48.578;-4.520;2022-11-15T14:53:06;22.40;68.60
75615;DHT22;64199;48.578;-4.520;2022-11-15T14:55:34;22.40;68.60
75615;DHT22;64199;48.578;-4.520;2022-11-15T14:58:05;22.30;68.40
75615;DHT22;64199;48.578;-4.520;2022-11-15T15:00:35;22.30;68.50
75615;DHT22;64199;48.578;-4.520;2022-11-15T15:03:01;22.30;68.40
75615;DHT22;64199;48.578;-4.520;2022-11-15T15:08:01;22.30;68.30
75615;DHT22;64199;48.578;-4.520;2022-11-15T15:10:36;22.30;68.40
75615;DHT22;64199;48.578;-4.520;2022-11-15T15:13:03;22.30;68.30
75615;DHT22;64199;48.578;-4.520;2022-11-15T15:15:37;22.30;68.20
75615;DHT22;64199;48.578;-4.520;2022-11-15T15:18:04;22.30;68.20
75615;DHT22;64199;48.578;-4.520;2022-11-15T15:20:31;22.30;68.20
75615;DHT22;64199;48.578;-4.520;2022-11-15T15:22:57;22.20;68.20
75615;DHT22;64199;48.578;-4.520;2022-11-15T15:25:28;22.30;68.20
75615;DHT22;64199;48.578;-4.520;2022-11-15T15:27:54;22.20;68.10
75615;DHT22;64199;48.578;-4.520;2022-11-15T15:30:22;22.20;68.10
75615;DHT22;64199;48.578;-4.520;2022-11-15T15:32:48;22.20;68.10
75615;DHT22;64199;48.578;-4.520;2022-11-15T15:35:15;22.20;68.10
75615;DHT22;64199;48.578;-4.520;2022-11-15T15:37:42;22.20;68.00
75615;DHT22;64199;48.578;-4.520;2022-11-15T15:40:16;22.20;68.00
75615;DHT22;64199;48.578;-4.520;2022-11-15T15:42:42;22.20;68.00
75615;DHT22;64199;48.578;-4.520;2022-11-15T15:45:09;22.20;68.00
75615;DHT22;64199;48.578;-4.520;2022-11-15T15:47:36;22.10;68.00
75615;DHT22;64199;48.578;-4.520;2022-11-15T15:50:02;22.10;68.10
75615;DHT22;64199;48.578;-4.520;2022-11-15T15:52:28;22.10;68.10
75615;DHT22;64199;48.578;-4.520;2022-11-15T15:54:53;22.10;68.30
75615;DHT22;64199;48.578;-4.520;2022-11-15T15:57:19;22.10;68.30
75615;DHT22;64199;48.578;-4.520;2022-11-15T15:59:45;22.10;68.30
75615;DHT22;64199;48.578;-4.520;2022-11-15T16:02:14;22.10;68.20
75615;DHT22;64199;48.578;-4.520;2022-11-15T16:04:40;22.10;68.00
75615;DHT22;64199;48.578;-4.520;2022-11-15T16:07:12;22.10;67.90
75615;DHT22;64199;48.578;-4.520;2022-11-15T16:09:41;22.10;67.70
75615;DHT22;64199;48.578;-4.520;2022-11-15T16:12:25;22.10;67.90
75615;DHT22;64199;48.578;-4.520;2022-11-15T16:14:51;22.10;68.00
75615;DHT22;64199;48.578;-4.520;2022-11-15T16:17:19;22.10;67.90
75615;DHT22;64199;48.578;-4.520;2022-11-15T16:19:45;22.00;67.90
75615;DHT22;64199;48.578;-4.520;2022-11-15T16:22:11;22.00;68.70
75615;DHT22;64199;48.578;-4.520;2022-11-15T16:24:37;22.10;68.00
75615;DHT22;64199;48.578;-4.520;2022-11-15T16:27:03;22.00;67.90
75615;DHT22;64199;48.578;-4.520;2022-11-15T16:29:29;22.00;67.80
75615;DHT22;64199;48.578;-4.520;2022-11-15T16:31:55;22.00;67.80
75615;DHT22;64199;48.578;-4.520;2022-11-15T16:34:21;22.00;67.80
75615;DHT22;64199;48.578;-4.520;2022-11-15T16:36:47;22.00;67.90
75615;DHT22;64199;48.578;-4.520;2022-11-15T16:39:13;22.00;67.90
75615;DHT22;64199;48.578;-4.520;2022-11-15T16:41:41;22.00;68.00
75615;DHT22;64199;48.578;-4.520;2022-11-15T16:44:08;21.90;67.90
75615;DHT22;64199;48.578;-4.520;2022-11-15T16:46:34;21.90;67.90
75615;DHT22;64199;48.578;-4.520;2022-11-15T16:49:00;22.00;68.10
75615;DHT22;64199;48.578;-4.520;2022-11-15T16:51:26;21.90;68.00
75615;DHT22;64199;48.578;-4.520;2022-11-15T16:53:52;21.90;67.90
75615;DHT22;64199;48.578;-4.520;2022-11-15T16:56:29;21.90;67.90
75615;DHT22;64199;48.578;-4.520;2022-11-15T16:58:56;21.90;68.00
75615;DHT22;64199;48.578;-4.520;2022-11-15T17:01:24;21.90;68.10
75615;DHT22;64199;48.578;-4.520;2022-11-15T17:03:51;21.90;68.10
75615;DHT22;64199;48.578;-4.520;2022-11-15T17:06:17;21.90;68.00
75615;DHT22;64199;48.578;-4.520;2022-11-15T17:08:44;21.90;68.10
75615;DHT22;64199;48.578;-4.520;2022-11-15T17:11:19;21.80;68.10
75615;DHT22;64199;48.578;-4.520;2022-11-15T17:13:46;21.80;68.20
75615;DHT22;64199;48.578;-4.520;2022-11-15T17:16:15;21.90;68.10
75615;DHT22;64199;48.578;-4.520;2022-11-15T17:18:42;21.90;68.00
75615;DHT22;64199;48.578;-4.520;2022-11-15T17:21:15;21.90;67.90
75615;DHT22;64199;48.578;-4.520;2022-11-15T17:23:42;21.90;67.80
75615;DHT22;64199;48.578;-4.520;2022-11-15T17:26:09;21.90;67.70
75615;DHT22;64199;48.578;-4.520;2022-11-15T17:28:36;21.80;67.60
75615;DHT22;64199;48.578;-4.520;2022-11-15T17:31:07;21.80;67.60
75615;DHT22;64199;48.578;-4.520;2022-11-15T17:33:33;21.80;67.50
75615;DHT22;64199;48.578;-4.520;2022-11-15T17:36:01;21.80;67.40
75615;DHT22;64199;48.578;-4.520;2022-11-15T17:38:28;21.80;67.40
75615;DHT22;64199;48.578;-4.520;2022-11-15T17:41:13;21.80;67.40
75615;DHT22;64199;48.578;-4.520;2022-11-15T17:43:40;21.70;67.20